RJNS(METAR)
01/21 13:00
METAR RJNS 210400Z VRB03KT 9999 FEW030 08/M19 Q1017 RMK 1CU030
A3003=
戻る
トップページへ戻る
IMOC Co,.Ltd.